createdAt,value
2019-02-04T00:00:08.889Z,12.60
2019-02-04T00:05:12.913Z,12.53
2019-02-04T00:10:16.932Z,10.83
2019-02-04T00:15:20.947Z,11.53
2019-02-04T00:20:24.887Z,12.33
2019-02-04T00:25:28.838Z,13.67
2019-02-04T00:30:33.156Z,13.50
2019-02-04T00:35:37.124Z,11.10
2019-02-04T00:40:41.085Z,14.60
2019-02-04T00:45:45.059Z,19.10
2019-02-04T00:50:48.961Z,13.40
2019-02-04T00:55:52.983Z,11.13
2019-02-04T01:00:57.023Z,16.83
2019-02-04T01:06:01.415Z,14.30
2019-02-04T01:11:06.455Z,15.73
2019-02-04T01:16:10.503Z,9.90
2019-02-04T01:21:14.596Z,22.03
2019-02-04T01:26:18.634Z,11.90
2019-02-04T01:31:22.507Z,11.60
2019-02-04T01:36:26.451Z,16.07
2019-02-04T01:41:33.159Z,16.00
2019-02-04T01:46:36.439Z,12.30
2019-02-04T01:51:40.367Z,12.20
2019-02-04T01:56:45.052Z,16.60
2019-02-04T02:01:49.156Z,15.40
2019-02-04T02:06:53.183Z,18.13
2019-02-04T02:11:57.320Z,21.60
2019-02-04T02:17:01.631Z,16.43
2019-02-04T02:22:05.624Z,24.23
2019-02-04T02:27:09.727Z,18.20
2019-02-04T02:32:13.757Z,18.90
2019-02-04T02:37:17.672Z,21.97
2019-02-04T02:42:21.711Z,17.83
2019-02-04T02:47:25.554Z,22.27
2019-02-04T02:52:31.110Z,24.97
2019-02-04T02:57:35.031Z,24.83
2019-02-04T03:02:38.895Z,23.70
2019-02-04T03:07:42.920Z,26.93
2019-02-04T03:12:47.147Z,26.53
2019-02-04T03:17:52.610Z,25.00
2019-02-04T03:22:56.872Z,28.37
2019-02-04T03:28:01.135Z,26.87
2019-02-04T03:33:05.757Z,26.80
2019-02-04T03:38:09.679Z,26.67
2019-02-04T03:43:13.619Z,23.60
2019-02-04T03:48:17.551Z,28.97
2019-02-04T03:53:21.400Z,23.80
2019-02-04T03:58:25.323Z,26.37
2019-02-04T04:03:29.335Z,25.03
2019-02-04T04:08:33.271Z,27.63
2019-02-04T04:13:37.148Z,23.00
2019-02-04T04:18:41.076Z,20.57
2019-02-04T04:23:45.000Z,24.40
2019-02-04T04:28:48.924Z,26.60
2019-02-04T04:33:52.868Z,28.83
2019-02-04T04:38:57.075Z,30.27
2019-02-04T04:44:00.932Z,29.57
2019-02-04T04:49:05.287Z,25.23
2019-02-04T04:54:09.156Z,27.03
2019-02-04T04:59:13.088Z,26.93
2019-02-04T05:04:16.927Z,27.43
2019-02-04T05:09:20.775Z,31.73
2019-02-04T05:14:24.659Z,27.27
2019-02-04T05:19:28.501Z,31.10
2019-02-04T05:24:32.335Z,31.67
2019-02-04T05:29:36.172Z,28.33
2019-02-04T05:34:40.154Z,28.23
2019-02-04T05:39:44.431Z,28.60
2019-02-04T05:44:48.388Z,25.23
2019-02-04T05:49:52.304Z,25.20
2019-02-04T05:54:56.211Z,31.17
2019-02-04T06:00:00.056Z,29.50
2019-02-04T06:05:04.927Z,26.23
2019-02-04T06:10:09.131Z,25.07
2019-02-04T06:15:13.354Z,25.13
2019-02-04T06:20:20.236Z,26.37
2019-02-04T06:25:24.070Z,26.83
2019-02-04T06:30:28.041Z,21.63
2019-02-04T06:35:31.991Z,32.07
2019-02-04T06:40:35.904Z,28.07
2019-02-04T06:45:39.739Z,21.10
2019-02-04T06:50:43.759Z,24.30
2019-02-04T06:55:47.708Z,20.30
2019-02-04T07:00:51.544Z,19.30
2019-02-04T07:05:55.528Z,19.30
2019-02-04T07:10:59.507Z,17.53
2019-02-04T07:16:03.351Z,17.90
2019-02-04T07:21:07.355Z,21.00
2019-02-04T07:26:11.339Z,19.67
2019-02-04T07:31:15.252Z,16.33
2019-02-04T07:36:19.187Z,15.70
2019-02-04T07:41:23.034Z,15.73
2019-02-04T07:46:26.973Z,12.33
2019-02-04T07:51:31.356Z,14.97
2019-02-04T07:56:35.227Z,15.80
2019-02-04T08:01:39.143Z,15.40
2019-02-04T08:06:43.007Z,13.33
2019-02-04T08:11:46.840Z,14.07
2019-02-04T08:16:50.739Z,13.30
2019-02-04T08:21:54.716Z,15.00
2019-02-04T08:26:58.556Z,20.07
2019-02-04T08:32:02.548Z,12.10
2019-02-04T08:37:06.446Z,17.30
2019-02-04T08:42:10.507Z,14.93
2019-02-04T08:47:22.535Z,12.60
2019-02-04T08:52:20.063Z,13.07
2019-02-04T08:57:24.148Z,17.23
2019-02-04T09:02:27.986Z,12.90
2019-02-04T09:07:31.812Z,13.20
2019-02-04T09:12:35.648Z,12.20
2019-02-04T09:17:39.659Z,11.90
2019-02-04T09:22:43.672Z,10.50
2019-02-04T09:27:47.495Z,11.47
2019-02-04T09:32:52.046Z,9.40
2019-02-04T09:37:56.175Z,11.90
2019-02-04T09:43:00.153Z,9.67
2019-02-04T09:48:05.172Z,12.60
2019-02-04T09:53:09.211Z,9.50
2019-02-04T09:58:13.112Z,8.67
2019-02-04T10:03:17.041Z,8.30
2019-02-04T10:08:21.386Z,12.97
2019-02-04T10:13:25.287Z,9.17
2019-02-04T10:18:29.137Z,17.73
2019-02-04T10:23:33.136Z,12.10
2019-02-04T10:28:37.225Z,12.90
2019-02-04T10:33:41.116Z,11.17
2019-02-04T10:38:49.607Z,7.00
2019-02-04T10:43:57.019Z,9.73
2019-02-04T10:49:00.949Z,8.73
2019-02-04T10:54:06.494Z,9.50
2019-02-04T10:59:10.472Z,10.57
2019-02-04T11:04:14.435Z,7.63
2019-02-04T11:09:18.338Z,8.23
2019-02-04T11:14:22.411Z,7.17
2019-02-04T11:19:26.870Z,8.63
2019-02-04T11:24:30.740Z,7.97
2019-02-04T11:29:34.645Z,11.33
2019-02-04T11:34:38.530Z,9.40
2019-02-04T11:39:42.454Z,8.50
2019-02-04T11:44:46.451Z,11.03
2019-02-04T11:49:50.527Z,15.27
2019-02-04T11:54:54.827Z,8.07
2019-02-04T11:59:58.687Z,12.50
2019-02-04T12:05:02.661Z,8.70
2019-02-04T12:10:08.549Z,8.50
2019-02-04T12:15:14.407Z,6.93
2019-02-04T12:20:18.457Z,9.57
2019-02-04T12:25:23.920Z,10.50
2019-02-04T12:30:33.794Z,11.87
2019-02-04T12:35:37.848Z,11.33
2019-02-04T12:40:41.823Z,9.93
2019-02-04T12:45:46.232Z,9.73
2019-02-04T12:50:50.215Z,7.47
2019-02-04T12:55:54.115Z,7.90
2019-02-04T13:00:57.944Z,7.77
2019-02-04T13:06:03.084Z,8.80
2019-02-04T13:11:07.078Z,9.20
2019-02-04T13:16:11.070Z,9.00
2019-02-04T13:21:14.903Z,7.27
2019-02-04T13:26:18.809Z,10.57
2019-02-04T13:31:22.712Z,9.33
2019-02-04T13:36:26.613Z,8.77
2019-02-04T13:41:30.538Z,11.73
2019-02-04T13:46:34.456Z,6.67
2019-02-04T13:51:38.427Z,8.10
2019-02-04T13:56:42.315Z,6.20
2019-02-04T14:01:46.319Z,10.30
2019-02-04T14:06:50.491Z,5.63
2019-02-04T14:11:54.421Z,9.50
2019-02-04T14:16:58.388Z,5.63
2019-02-04T14:22:09.482Z,12.40
2019-02-04T14:27:07.997Z,12.70
2019-02-04T14:32:11.975Z,17.55
2019-02-04T14:37:15.987Z,24.60
2019-02-04T14:42:20.287Z,17.73
2019-02-04T14:47:46.626Z,8.37
2019-02-04T14:53:34.995Z,6.73
2019-02-04T14:59:13.004Z,6.60
2019-02-04T15:04:26.662Z,7.50
2019-02-04T15:09:56.404Z,7.57
2019-02-04T15:15:27.488Z,12.33
2019-02-04T15:21:11.189Z,5.53
2019-02-04T15:26:28.912Z,5.27
2019-02-04T15:32:15.026Z,7.03
2019-02-04T15:37:32.938Z,4.77
2019-02-04T15:43:16.665Z,5.63
2019-02-04T15:48:34.903Z,5.00
2019-02-04T15:53:38.843Z,10.20
2019-02-04T15:58:42.691Z,7.07
2019-02-04T16:03:46.613Z,5.13
2019-02-04T16:08:50.452Z,5.33
2019-02-04T16:13:54.374Z,6.43
2019-02-04T16:18:58.225Z,4.43
2019-02-04T16:24:02.436Z,8.00
2019-02-04T16:29:06.423Z,4.23
2019-02-04T16:34:10.564Z,7.37
2019-02-04T16:39:14.785Z,3.77
2019-02-04T16:44:18.856Z,9.10
2019-02-04T16:49:23.081Z,7.53
2019-02-04T16:54:27.252Z,4.13
2019-02-04T16:59:31.378Z,4.07
2019-02-04T17:04:35.503Z,4.60
2019-02-04T17:09:39.561Z,5.43
2019-02-04T17:14:43.555Z,5.00
2019-02-04T17:19:47.404Z,6.33
2019-02-04T17:24:51.735Z,4.40
2019-02-04T17:29:55.732Z,6.40
2019-02-04T17:34:59.585Z,4.63
2019-02-04T17:40:04.381Z,7.00
2019-02-04T17:45:11.623Z,6.03
2019-02-04T17:50:17.448Z,6.83
2019-02-04T17:55:22.996Z,11.07
2019-02-04T18:00:39.663Z,5.67
2019-02-04T18:05:43.555Z,5.17
2019-02-04T18:10:48.113Z,11.73
2019-02-04T18:15:52.072Z,4.47
2019-02-04T18:20:55.905Z,5.17
2019-02-04T18:25:59.824Z,4.90
2019-02-04T18:31:04.061Z,3.20
2019-02-04T18:36:08.042Z,4.60
2019-02-04T18:41:11.947Z,8.87
2019-02-04T18:46:15.929Z,4.57
2019-02-04T18:51:20.261Z,5.93
2019-02-04T18:56:24.163Z,4.83
2019-02-04T19:01:28.067Z,4.87
2019-02-04T19:06:32.022Z,4.53
2019-02-04T19:11:35.992Z,7.20
2019-02-04T19:16:39.923Z,6.90
2019-02-04T19:21:44.216Z,4.93
2019-02-04T19:26:48.256Z,7.10
2019-02-04T19:31:52.155Z,4.50
2019-02-04T19:36:56.088Z,8.57
2019-02-04T19:42:00.010Z,4.07
2019-02-04T19:47:04.266Z,5.40
2019-02-04T19:52:08.253Z,7.23
2019-02-04T19:57:12.100Z,6.00
2019-02-04T20:02:16.083Z,5.90
2019-02-04T20:07:19.928Z,6.80
2019-02-04T20:12:23.923Z,6.00
2019-02-04T20:17:27.785Z,5.93
2019-02-04T20:22:31.707Z,8.13
2019-02-04T20:27:35.608Z,5.13
2019-02-04T20:32:39.608Z,7.83
2019-02-04T20:37:43.588Z,5.33
2019-02-04T20:42:47.527Z,7.77
2019-02-04T20:47:51.481Z,6.53
2019-02-04T20:52:55.507Z,5.83
2019-02-04T20:57:59.550Z,8.13
2019-02-04T21:03:03.464Z,5.57
2019-02-04T21:08:08.051Z,7.57
2019-02-04T21:13:12.464Z,6.10
2019-02-04T21:18:16.387Z,3.40
2019-02-04T21:23:20.368Z,8.63
2019-02-04T21:28:24.275Z,4.97
2019-02-04T21:33:28.263Z,3.83
2019-02-04T21:38:32.112Z,4.43
2019-02-04T21:43:35.947Z,3.70
2019-02-04T21:48:40.080Z,6.97
2019-02-04T21:53:44.064Z,6.20
2019-02-04T21:58:47.915Z,2.83
2019-02-04T22:03:51.852Z,4.07
2019-02-04T22:08:55.772Z,3.30
2019-02-04T22:13:59.716Z,3.87
2019-02-04T22:19:03.629Z,3.10
2019-02-04T22:24:07.551Z,4.00
2019-02-04T22:29:11.386Z,5.03
2019-02-04T22:34:15.225Z,4.40
2019-02-04T22:39:19.140Z,4.03
2019-02-04T22:44:23.628Z,5.40
2019-02-04T22:49:27.556Z,4.13
2019-02-04T22:54:31.403Z,6.77
2019-02-04T22:59:35.256Z,5.40
2019-02-04T23:04:39.215Z,5.10
2019-02-04T23:09:43.195Z,4.77
2019-02-04T23:14:47.143Z,5.90
2019-02-04T23:19:50.996Z,6.40
2019-02-04T23:24:54.831Z,4.97
2019-02-04T23:29:58.754Z,7.63
2019-02-04T23:35:02.680Z,9.80
2019-02-04T23:40:07.095Z,7.93
2019-02-04T23:45:11.527Z,8.17
2019-02-04T23:50:15.755Z,8.10
2019-02-04T23:55:19.695Z,5.77
